Nearby METAR Reports

 

KSQL - San Carlos Airpo, California, USA
Distance from station: N 0mi, 1km
Updated: Mon, 19-Feb-2018 8:47am PST
Few Clouds
Few Clouds
 Wind from NW
Wind: NW 12 mph , 19 km/h, Gust: 22 mph , 35 km/h
Temperature: 45°F , 7°C
Wind Chill: 39°F , 4°C
Dew Point: 28°F , -2°C
Humidity: 53%
Barometer: 30.03 inHg , 1016.9 hPa
Clouds: Few Clouds
Visibility: 10 miles , 16 km
Cloud details: Few Clouds 2500 ft
2018/02/19 16:47 KSQL 191647Z 31010G19KT 10SM FEW025 07/M02 A3003
KPAO - Palo Alto, California, USA
Distance from station: ESE 8mi, 13km
Updated: Mon, 19-Feb-2018 8:47am PST
Few Clouds
Few Clouds
 Wind from NW
Wind: NW 8 mph , 13 km/h, Gust: 17 mph , 28 km/h
Clouds: Few Clouds
Visibility: 10 miles , 16 km
Cloud details: Few Clouds 3500 ft
2018/02/19 16:47 KPAO 191647Z 31007G15KT 10SM FEW035 --/-- A3003
 
KSFO - San Francisco, California, USA
Distance from station: NW 10mi, 16km
Updated: Mon, 19-Feb-2018 8:56am PST
Few Clouds
Few Clouds
 Wind from WNW
Wind: WNW 16 mph , 26 km/h
Temperature: 46°F , 8°C
Wind Chill: 39°F , 4°C
Dew Point: 28°F , -2°C
Humidity: 50%
Barometer: 30.03 inHg , 1016.9 hPa
Clouds: Few Clouds
Visibility: 10 miles , 16 km
Cloud details: Few Clouds 3500 ft
2018/02/19 16:56 KSFO 191656Z 30014KT 10SM FEW035 08/M02 A3003 RMK AO2 SLP168 T00781017 $
KHWD - Hayward, California, USA
Distance from station: NE 13mi, 21km
Updated: Mon, 19-Feb-2018 8:54am PST
Clear
Clear
 Wind from N
Wind: N 14 mph , 22 km/h
Temperature: 45°F , 7°C
Wind Chill: 39°F , 4°C
Dew Point: 27°F , -3°C
Humidity: 49%
Barometer: 30.03 inHg , 1016.9 hPa
Clouds: Clear
Visibility: 10 miles , 16 km
2018/02/19 16:54 KHWD 191654Z 35012KT 10SM CLR 07/M03 A3003 RMK AO2 SLP177 T00721028
 
KNUQ - Moffett Nas/Mtn, California, USA
Distance from station: SE 13mi, 22km
Updated: Mon, 19-Feb-2018 8:56am PST
Mostly cloudy
Mostly cloudy
 Wind from NNW
Wind: NNW 15 mph , 24 km/h, Gust: 23 mph , 37 km/h
Temperature: 46°F , 8°C
Wind Chill: 40°F , 4°C
Dew Point: 30°F , -1°C
Humidity: 53%
Barometer: 30.04 inHg , 1017.3 hPa
Clouds: Mostly cloudy
Visibility: 10 miles , 16 km
Cloud details: Mostly cloudy 3600 ft
2018/02/19 16:56 KNUQ 191656Z 34013G20KT 10SM BKN036 08/M01 A3004 RMK AO2 SLP173 T00831006
KHAF - Half Moon Bay, California, USA
Distance from station: W 14mi, 22km
Updated: Mon, 19-Feb-2018 9:35am PST
Clear
Clear
 Wind from NNW
Wind: NNW 18 mph , 30 km/h, Gust: 25 mph , 41 km/h
Temperature: 46°F , 8°C
Wind Chill: 39°F , 4°C
Dew Point: 32°F , 0°C
Humidity: 57%
Barometer: 30.02 inHg , 1016.6 hPa
Clouds: Clear
Visibility: 8 miles , 13 km
2018/02/19 17:35 KHAF 191735Z AUTO 34016G22KT 8SM CLR 08/00 A3002 RMK AO2
 
KOAK - Oakland, California, USA
Distance from station: N 14mi, 23km
Updated: Mon, 19-Feb-2018 8:53am PST
Few Clouds
Few Clouds
 Wind from NNW
Wind: NNW 15 mph , 24 km/h
Temperature: 45°F , 7°C
Wind Chill: 38°F , 3°C
Dew Point: 28°F , -2°C
Humidity: 53%
Barometer: 30.03 inHg , 1016.9 hPa
Clouds: Few Clouds
Visibility: 10 miles , 16 km
Cloud details: Few Clouds 3000 ft
2018/02/19 16:53 KOAK 191653Z 34013KT 10SM FEW030 07/M02 A3003 RMK AO2 SLP168 T00671017
KSJC - San Jose, California, USA
Distance from station: ESE 21mi, 34km
Updated: Mon, 19-Feb-2018 8:53am PST
Light rain, Few clouds
Light rain, Few clouds
 Wind from WNW
Wind: WNW 20 mph , 31 km/h, Gust: 25 mph , 41 km/h
Temperature: 46°F , 8°C
Wind Chill: 38°F , 3°C
Dew Point: 30°F , -1°C
Humidity: 53%
Barometer: 30.02 inHg , 1016.6 hPa
Summary: Light rain
Clouds: Few Clouds
Visibility: 10 miles , 16 km
Cloud details: Few Clouds 2000 ft
Few Clouds 4200 ft
2018/02/19 16:53 KSJC 191653Z 30017G22KT 10SM -RA FEW020 FEW042 08/M01 A3002 RMK AO2 RAB08E22B53 SLP165 P0000 T00781006
 
KLVK - Livermore, California, USA
Distance from station: ENE 27mi, 43km
Updated: Mon, 19-Feb-2018 8:53am PST
Clear
Clear
 Wind from WNW
Wind: WNW 10 mph , 17 km/h
Temperature: 41°F , 5°C
Wind Chill: 35°F , 2°C
Dew Point: 30°F , -1°C
Humidity: 66%
Barometer: 30.00 inHg , 1015.9 hPa
Clouds: Clear
Visibility: 10 miles , 16 km
2018/02/19 16:53 KLVK 191653Z 29009KT 10SM CLR 05/M01 A3000 RMK AO2 SLP159 T00501006
KRHV - San Jose/Reid, California, USA
Distance from station: ESE 27mi, 44km
Updated: Mon, 19-Feb-2018 8:47am PST
Mostly cloudy
Mostly cloudy
 Wind from N
Wind: N 16 mph , 26 km/h
Temperature: 43°F , 6°C
Wind Chill: 35°F , 2°C
Dew Point: 30°F , -1°C
Humidity: 61%
Barometer: 30.00 inHg , 1015.9 hPa
Clouds: Mostly cloudy
Visibility: 10 miles , 16 km
Cloud details: Few Clouds 2000 ft
Mostly cloudy 3000 ft
2018/02/19 16:47 KRHV 191647Z 35014KT 10SM FEW020 BKN030 06/M01 A3000
 
KCCR - Concord, California, USA
Distance from station: NNE 35mi, 57km
Updated: Mon, 19-Feb-2018 8:53am PST
Clear
Clear
 Wind from NW
Wind: NW 9 mph , 15 km/h
Temperature: 45°F , 7°C
Wind Chill: 40°F , 4°C
Dew Point: 30°F , -1°C
Humidity: 57%
Barometer: 30.03 inHg , 1016.9 hPa
Clouds: Clear
Visibility: 10 miles , 16 km
2018/02/19 16:53 KCCR 191653Z 31008KT 10SM CLR 07/M01 A3003 RMK AO2 SLP154 T00671006
KE16 - San Martin, California, USA
Distance from station: SE 46mi, 75km
Updated: Mon, 19-Feb-2018 9:35am PST
Partly cloudy
Partly cloudy
 Wind from NW
Wind: NW 16 mph , 26 km/h, Gust: 23 mph , 37 km/h
Temperature: 45°F , 7°C
Wind Chill: 38°F , 3°C
Dew Point: 30°F , -1°C
Humidity: 57%
Barometer: 30.03 inHg , 1016.9 hPa
Clouds: Partly cloudy
Visibility: 10 miles , 16 km
Cloud details: Partly cloudy 4000 ft
2018/02/19 17:35 KE16 191735Z AUTO 32014G20KT 10SM SCT040 07/M01 A3003 RMK AO2
 
KDVO - Novato/Gnoss Fld, California, USA
Distance from station: NNW 47mi, 76km
Updated: Mon, 19-Feb-2018 9:35am PST
Clear
Clear
 Wind from NNW
Wind: NNW 18 mph , 30 km/h, Gust: 25 mph , 41 km/h
Temperature: 46°F , 8°C
Wind Chill: 39°F , 4°C
Dew Point: 28°F , -2°C
Humidity: 50%
Barometer: 30.04 inHg , 1017.3 hPa
Clouds: Clear
Visibility: 10 miles , 16 km
2018/02/19 17:35 KDVO 191735Z AUTO 33016G22KT 10SM CLR 08/M02 A3004 RMK AO2
KWVI - Watsonville, California, USA
Distance from station: SSE 47mi, 76km
Updated: Mon, 19-Feb-2018 8:53am PST
Clear
Clear
 Wind from calm
Wind: Calm
Temperature: 45°F , 7°C
Dew Point: 32°F , 0°C
Humidity: 61%
Barometer: 30.03 inHg , 1016.9 hPa
Clouds: Clear
Visibility: 10 miles , 16 km
2018/02/19 16:53 KWVI 191653Z AUTO 00000KT 10SM CLR 07/00 A3003 RMK AO2 SLP168 T00720000
 
KAPC - Napa, California, USA
Distance from station: N 48mi, 77km
Updated: Mon, 19-Feb-2018 8:54am PST
Clear
Clear
 Wind from NNW
Wind: NNW 5 mph , 7 km/h
Temperature: 39°F , 4°C
Wind Chill: 35°F , 2°C
Dew Point: 30°F , -1°C
Humidity: 70%
Barometer: 30.03 inHg , 1016.9 hPa
Clouds: Clear
Visibility: 10 miles , 16 km
2018/02/19 16:54 KAPC 191654Z 34004KT 10SM CLR 04/M01 A3003 RMK AO2 SLP160 T00441006
KO69 - Petaluma, California, USA
Distance from station: NNW 54mi, 88km
Updated: Mon, 19-Feb-2018 9:35am PST
Clear
Clear
 Wind from varies
Wind: varies 6 mph , 9 km/h, Gust: 16 mph , 26 km/h
Temperature: 43°F , 6°C
Wind Chill: 39°F , 4°C
Dew Point: 32°F , 0°C
Humidity: 66%
Barometer: 30.05 inHg , 1017.6 hPa
Clouds: Clear
Visibility: 10 miles , 16 km
2018/02/19 17:35 KO69 191735Z AUTO VRB05G14KT 10SM CLR 06/00 A3005 RMK A01
 
KSUU - Travis Afb/Fairf, California, USA
Distance from station: NNE 55mi, 89km
Updated: Mon, 19-Feb-2018 8:58am PST
Clear
Clear
 Wind from calm
Wind: Calm
Temperature: 43°F , 6°C
Dew Point: 27°F , -3°C
Humidity: 53%
Barometer: 30.00 inHg , 1015.9 hPa
Clouds: Clear
Visibility: 10 miles , 16 km
2018/02/19 16:58 KSUU 191658Z AUTO 00000KT 10SM CLR 06/M03 A3000 RMK AO2 SLP166 T00581028 $
KCVH - Hollister Muni, California, USA
Distance from station: SE 62mi, 100km
Updated: Mon, 19-Feb-2018 9:35am PST
Mostly cloudy
Mostly cloudy
 Wind from NW
Wind: NW 14 mph , 22 km/h
Temperature: 46°F , 8°C
Wind Chill: 40°F , 4°C
Dew Point: 30°F , -1°C
Humidity: 53%
Barometer: 30.03 inHg , 1016.9 hPa
Clouds: Mostly cloudy
Visibility: 10 miles , 16 km
Cloud details: Mostly cloudy 3800 ft
Mostly cloudy 4600 ft
2018/02/19 17:35 KCVH 191735Z AUTO 31012KT 10SM BKN038 BKN046 08/M01 A3003 RMK A01
 
KSCK - Stockton, California, USA
Distance from station: ENE 62mi, 100km
Updated: Mon, 19-Feb-2018 8:55am PST
Clear
Clear
 Wind from NW
Wind: NW 12 mph , 19 km/h
Temperature: 46°F , 8°C
Wind Chill: 40°F , 4°C
Dew Point: 32°F , 0°C
Humidity: 57%
Barometer: 30.00 inHg , 1015.9 hPa
Clouds: Clear
Visibility: 10 miles , 16 km
2018/02/19 16:55 KSCK 191655Z 31010KT 10SM CLR 08/00 A3000 RMK AO2 SLP159 T00780000
KVCB - Vacaville, California, USA
Distance from station: NNE 62mi, 100km
Updated: Mon, 19-Feb-2018 8:53am PST
Clear
Clear
 Wind from varies
Wind: varies 3 mph , 6 km/h
Temperature: 45°F , 7°C
Dew Point: 28°F , -2°C
Humidity: 53%
Barometer: 30.02 inHg , 1016.6 hPa
Clouds: Clear
Visibility: 10 miles , 16 km
2018/02/19 16:53 KVCB 191653Z AUTO VRB03KT 10SM CLR 07/M02 A3002 RMK AO2 SLP166 T00721017